Time;durP1;ratioP1;P1;durP2;ratioP2;P2;SDS_P1;SDS_P2;PMS_P1;PMS_P2;Temp;Humidity;BMP_temperature;BMP_pressure;BME280_temperature;BME280_humidity;BME280_pressure;Samples;Min_cycle;Max_cycle;Signal;HPM_P1;HPM_P2
2021/10/11 00:02:12;;;;;;;13.50;7.22;;;;;;;;;;5076234;28;20025;-85
2021/10/11 00:04:38;;;;;;;11.88;7.22;;;;;;;;;;5077325;28;20024;-85
2021/10/11 00:07:04;;;;;;;12.55;7.05;;;;;;;;;;5077426;28;20071;-85
2021/10/11 00:09:31;;;;;;;15.70;7.40;;;;;;;;;;5077056;28;20028;-85
2021/10/11 00:11:57;;;;;;;15.75;7.78;;;;;;;;;;5077347;28;20016;-86
2021/10/11 00:14:24;;;;;;;10.23;7.13;;;;;;;;;;5080177;28;20023;-84
2021/10/11 00:16:50;;;;;;;11.02;6.55;;;;;;;;;;5080888;28;20017;-84
2021/10/11 00:19:19;;;;;;;14.95;7.50;;;;;;;;;;5081073;28;20025;-84
2021/10/11 00:21:45;;;;;;;12.75;7.50;;;;;;;;;;5080886;28;20027;-86
2021/10/11 00:24:11;;;;;;;15.18;7.68;;;;;;;;;;5079727;28;20028;-86
2021/10/11 00:26:56;;;;;;;12.30;6.97;;;;;;;;;;5080728;28;20032;-84
2021/10/11 00:29:22;;;;;;;13.88;8.02;;;;;;;;;;5080585;28;20029;-84
2021/10/11 00:31:48;;;;;;;11.23;7.55;;;;;;;;;;5080911;28;20035;-84
2021/10/11 00:34:14;;;;;;;11.32;7.20;;;;;;;;;;5080623;28;20024;-84
2021/10/11 00:36:40;;;;;;;13.57;7.75;;;;;;;;;;5080574;28;20039;-84
2021/10/11 00:39:06;;;;;;;12.63;8.05;;;;;;;;;;5079844;28;20058;-84
2021/10/11 00:41:32;;;;;;;13.75;7.97;;;;;;;;;;5080601;28;20028;-84
2021/10/11 00:44:00;;;;;;;14.82;8.95;;;;;;;;;;5079385;28;20123;-83
2021/10/11 00:46:26;;;;;;;12.73;8.48;;;;;;;;;;5080292;28;20374;-84
2021/10/11 00:48:52;;;;;;;12.48;7.80;;;;;;;;;;5080169;28;20025;-84
2021/10/11 00:51:18;;;;;;;16.25;8.90;;;;;;;;;;5079160;28;20090;-84
2021/10/11 00:53:44;;;;;;;16.00;8.48;;;;;;;;;;5080136;28;20478;-84
2021/10/11 00:56:38;;;;;;;17.48;8.10;;;;;;;;;;5078973;28;20406;-85
2021/10/11 00:59:05;;;;;;;12.82;8.15;;;;;;;;;;5079260;28;20349;-86
2021/10/11 01:01:31;;;;;;;13.27;8.13;;;;;;;;;;5079418;28;20107;-86
2021/10/11 01:03:57;;;;;;;13.30;9.23;;;;;;;;;;5080141;28;20024;-86
2021/10/11 01:06:23;;;;;;;16.17;8.18;;;;;;;;;;5079192;28;20474;-86
2021/10/11 01:08:50;;;;;;;16.42;8.82;;;;;;;;;;5079954;28;20461;-86
2021/10/11 01:14:20;;;;;;;13.63;8.40;;;;;;;;;;5080038;28;20036;-86
2021/10/11 01:16:46;;;;;;;15.85;8.02;;;;;;;;;;5080222;28;20021;-86
2021/10/11 01:19:12;;;;;;;15.23;8.38;;;;;;;;;;5078913;28;20035;-84
2021/10/11 01:21:38;;;;;;;14.75;8.27;;;;;;;;;;5079612;28;20029;-86
2021/10/11 01:24:05;;;;;;;15.65;8.82;;;;;;;;;;5079113;28;20020;-86
2021/10/11 01:26:38;;;;;;;14.15;8.48;;;;;;;;;;5079472;28;20028;-83
2021/10/11 01:29:05;;;;;;;13.10;8.65;;;;;;;;;;5078471;28;20036;-85
2021/10/11 01:31:31;;;;;;;15.13;8.30;;;;;;;;;;5079584;28;20306;-85
2021/10/11 01:33:57;;;;;;;14.82;8.35;;;;;;;;;;5079814;28;20043;-83
2021/10/11 01:36:23;;;;;;;11.90;8.27;;;;;;;;;;5079463;28;20029;-85
2021/10/11 01:38:52;;;;;;;12.50;8.80;;;;;;;;;;5078438;28;20028;-84
2021/10/11 01:41:18;;;;;;;16.10;8.60;;;;;;;;;;5079584;28;20025;-85
2021/10/11 01:43:44;;;;;;;14.07;8.27;;;;;;;;;;5079406;28;20020;-85
2021/10/11 01:46:10;;;;;;;15.48;9.23;;;;;;;;;;5079092;28;20437;-85
2021/10/11 01:48:36;;;;;;;14.25;8.63;;;;;;;;;;5079102;28;20379;-85
2021/10/11 01:51:02;;;;;;;13.57;8.45;;;;;;;;;;5079341;28;20310;-86
2021/10/11 01:53:28;;;;;;;13.35;8.93;;;;;;;;;;5079415;28;20362;-86
2021/10/11 01:55:54;;;;;;;13.27;9.30;;;;;;;;;;5079358;28;20031;-86
2021/10/11 01:58:20;;;;;;;16.70;8.05;;;;;;;;;;5079389;28;20024;-86
2021/10/11 02:00:46;;;;;;;12.73;7.55;;;;;;;;;;5078021;28;20124;-85
2021/10/11 02:03:12;;;;;;;13.48;7.88;;;;;;;;;;5079159;28;20033;-86
2021/10/11 02:05:39;;;;;;;15.35;8.00;;;;;;;;;;5079195;28;20036;-85
2021/10/11 02:08:05;;;;;;;13.45;7.72;;;;;;;;;;5078626;28;20411;-85
2021/10/11 02:10:31;;;;;;;14.27;8.15;;;;;;;;;;5078698;28;20406;-86
2021/10/11 02:13:00;;;;;;;13.05;7.07;;;;;;;;;;5078822;28;20024;-85
2021/10/11 02:15:27;;;;;;;16.33;7.18;;;;;;;;;;5078772;28;20039;-86
2021/10/11 02:17:53;;;;;;;10.70;7.78;;;;;;;;;;5079127;28;20039;-86
2021/10/11 02:20:19;;;;;;;16.23;8.05;;;;;;;;;;5078630;28;20051;-86
2021/10/11 02:22:46;;;;;;;14.60;8.07;;;;;;;;;;5077410;28;20032;-84
2021/10/11 02:25:12;;;;;;;11.20;7.95;;;;;;;;;;5077089;28;20037;-84
2021/10/11 02:27:39;;;;;;;13.32;8.68;;;;;;;;;;5078427;28;20029;-84
2021/10/11 02:30:06;;;;;;;11.48;8.10;;;;;;;;;;5077264;28;20035;-85
2021/10/11 02:32:32;;;;;;;12.13;7.75;;;;;;;;;;5079296;28;20333;-85
2021/10/11 02:34:58;;;;;;;16.98;8.07;;;;;;;;;;5078555;28;20028;-84
2021/10/11 02:37:24;;;;;;;12.75;7.82;;;;;;;;;;5077772;28;20024;-84
2021/10/11 02:39:53;;;;;;;13.65;8.00;;;;;;;;;;5078124;28;20043;-84
2021/10/11 02:42:38;;;;;;;18.42;8.10;;;;;;;;;;5077905;28;20020;-84
2021/10/11 02:45:04;;;;;;;16.70;8.95;;;;;;;;;;5077946;28;20039;-86
2021/10/11 02:47:30;;;;;;;14.48;9.10;;;;;;;;;;5078001;28;20319;-85
2021/10/11 02:49:56;;;;;;;17.35;9.70;;;;;;;;;;5078221;28;20024;-86
2021/10/11 02:52:22;;;;;;;12.88;9.27;;;;;;;;;;5078129;28;20039;-86
2021/10/11 02:54:48;;;;;;;20.77;11.00;;;;;;;;;;5078376;28;20032;-85
2021/10/11 02:57:33;;;;;;;17.33;11.32;;;;;;;;;;5077033;28;20048;-84
2021/10/11 02:59:59;;;;;;;17.13;11.45;;;;;;;;;;5077982;28;20021;-84
2021/10/11 03:02:25;;;;;;;19.00;11.98;;;;;;;;;;5077740;28;20056;-86
2021/10/11 03:04:51;;;;;;;18.23;11.68;;;;;;;;;;5076886;28;20047;-86
2021/10/11 03:07:20;;;;;;;21.30;12.98;;;;;;;;;;5077779;28;20069;-86
2021/10/11 03:09:46;;;;;;;21.95;14.18;;;;;;;;;;5078006;28;20036;-86
2021/10/11 03:12:13;;;;;;;25.02;13.45;;;;;;;;;;5077536;28;20025;-85
2021/10/11 03:14:39;;;;;;;22.35;13.57;;;;;;;;;;5077816;28;20021;-86
2021/10/11 03:17:05;;;;;;;20.75;12.30;;;;;;;;;;5077676;28;20429;-85
2021/10/11 03:19:31;;;;;;;23.13;13.52;;;;;;;;;;5076426;28;20441;-85
2021/10/11 03:21:57;;;;;;;20.27;13.27;;;;;;;;;;5077836;28;20028;-85
2021/10/11 03:24:23;;;;;;;21.33;14.73;;;;;;;;;;5076443;28;20025;-84
2021/10/11 03:27:26;;;;;;;25.58;13.82;;;;;;;;;;5077797;28;20025;-85
2021/10/11 03:29:53;;;;;;;20.88;14.32;;;;;;;;;;5077475;28;20365;-85
2021/10/11 03:32:19;;;;;;;27.80;16.08;;;;;;;;;;5076708;28;20111;-85
2021/10/11 03:34:45;;;;;;;23.70;15.88;;;;;;;;;;5077810;28;20029;-86
2021/10/11 03:37:12;;;;;;;23.15;14.55;;;;;;;;;;5077703;28;20024;-86
2021/10/11 03:39:38;;;;;;;22.92;15.55;;;;;;;;;;5077763;28;20048;-86
2021/10/11 03:48:11;;;;;;;26.40;15.63;;;;;;;;;;5079214;28;20089;-86
2021/10/11 03:50:37;;;;;;;24.40;14.93;;;;;;;;;;5081562;28;20391;-85
2021/10/11 03:53:03;;;;;;;25.98;15.70;;;;;;;;;;5081864;28;20021;-85
2021/10/11 03:55:29;;;;;;;23.10;15.93;;;;;;;;;;5081708;28;20020;-85
2021/10/11 03:58:14;;;;;;;25.90;16.10;;;;;;;;;;5081579;28;20027;-85
2021/10/11 04:00:40;;;;;;;29.02;16.42;;;;;;;;;;5080076;28;20036;-84
2021/10/11 04:03:07;;;;;;;25.60;15.75;;;;;;;;;;5081111;28;20025;-84
2021/10/11 04:05:34;;;;;;;24.52;16.70;;;;;;;;;;5080704;28;20040;-84
2021/10/11 04:08:06;;;;;;;28.02;17.23;;;;;;;;;;5081258;28;20025;-84
2021/10/11 04:10:37;;;;;;;28.52;16.45;;;;;;;;;;5080341;28;20028;-85
2021/10/11 04:13:05;;;;;;;25.30;16.27;;;;;;;;;;5081356;28;20098;-85
2021/10/11 04:15:31;;;;;;;25.85;16.13;;;;;;;;;;5080979;28;20318;-85
2021/10/11 04:17:57;;;;;;;25.88;16.13;;;;;;;;;;5079716;28;20025;-84
2021/10/11 04:20:23;;;;;;;29.77;16.90;;;;;;;;;;5080754;28;20112;-84
2021/10/11 04:22:50;;;;;;;27.08;16.60;;;;;;;;;;5080696;28;20021;-83
2021/10/11 04:25:16;;;;;;;29.92;17.83;;;;;;;;;;5080609;28;20072;-83
2021/10/11 04:27:42;;;;;;;28.40;16.77;;;;;;;;;;5080383;28;20021;-83
2021/10/11 04:30:09;;;;;;;23.27;14.93;;;;;;;;;;5080318;28;20520;-86
2021/10/11 04:32:35;;;;;;;25.58;14.55;;;;;;;;;;5080833;28;20020;-86
2021/10/11 04:35:01;;;;;;;28.17;15.98;;;;;;;;;;5079661;28;20021;-84
2021/10/11 04:37:27;;;;;;;31.33;16.50;;;;;;;;;;5080692;28;20019;-85
2021/10/11 04:39:54;;;;;;;29.20;16.70;;;;;;;;;;5080804;28;20052;-85
2021/10/11 04:45:28;;;;;;;26.45;15.10;;;;;;;;;;5080798;28;20036;-85
2021/10/11 04:47:55;;;;;;;24.95;15.57;;;;;;;;;;5079483;28;20040;-85
2021/10/11 04:50:21;;;;;;;23.42;15.07;;;;;;;;;;5080417;28;20021;-86
2021/10/11 04:52:47;;;;;;;25.05;15.05;;;;;;;;;;5080457;28;20020;-86
2021/10/11 04:55:13;;;;;;;21.55;14.23;;;;;;;;;;5080186;28;20348;-84
2021/10/11 04:57:58;;;;;;;22.40;15.40;;;;;;;;;;5080462;28;20020;-84
2021/10/11 05:00:24;;;;;;;25.02;14.60;;;;;;;;;;5079886;28;20017;-84
2021/10/11 05:02:51;;;;;;;20.80;13.98;;;;;;;;;;5080339;28;20024;-86
2021/10/11 05:05:17;;;;;;;22.95;13.75;;;;;;;;;;5080098;28;20410;-88
2021/10/11 05:07:43;;;;;;;22.83;13.75;;;;;;;;;;5079045;28;20052;-85
2021/10/11 05:10:09;;;;;;;24.77;13.60;;;;;;;;;;5080202;28;20021;-86
2021/10/11 05:12:54;;;;;;;24.45;13.10;;;;;;;;;;5079869;28;20055;-86
2021/10/11 05:15:20;;;;;;;21.20;12.95;;;;;;;;;;5079275;28;20024;-84
2021/10/11 05:17:46;;;;;;;18.90;12.43;;;;;;;;;;5080072;28;20028;-85
2021/10/11 05:20:12;;;;;;;21.00;13.50;;;;;;;;;;5079874;28;20048;-85
2021/10/11 05:22:38;;;;;;;25.70;13.00;;;;;;;;;;5079705;28;20058;-84
2021/10/11 05:25:06;;;;;;;23.55;13.73;;;;;;;;;;5078131;28;20059;-84
2021/10/11 05:27:32;;;;;;;19.83;12.85;;;;;;;;;;5079990;28;20025;-85
2021/10/11 05:29:58;;;;;;;19.95;13.25;;;;;;;;;;5079949;28;20053;-86
2021/10/11 05:32:25;;;;;;;20.70;12.57;;;;;;;;;;5079383;28;20021;-85
2021/10/11 05:34:51;;;;;;;21.73;12.48;;;;;;;;;;5079848;28;20021;-85
2021/10/11 05:37:18;;;;;;;21.20;12.73;;;;;;;;;;5079738;28;20337;-84
2021/10/11 05:39:44;;;;;;;22.48;12.65;;;;;;;;;;5079465;28;20021;-86
2021/10/11 05:42:13;;;;;;;20.27;12.85;;;;;;;;;;5079411;28;20027;-86
2021/10/11 05:44:39;;;;;;;28.15;17.27;;;;;;;;;;5078086;28;20077;-85
2021/10/11 05:47:05;;;;;;;31.65;16.45;;;;;;;;;;5077853;28;20033;-84
2021/10/11 05:49:31;;;;;;;24.65;14.93;;;;;;;;;;5079388;28;20029;-85
2021/10/11 05:51:58;;;;;;;20.63;13.23;;;;;;;;;;5079030;28;20020;-85
2021/10/11 05:54:24;;;;;;;25.25;13.95;;;;;;;;;;5079050;28;20025;-84
2021/10/11 05:56:50;;;;;;;24.00;14.48;;;;;;;;;;5078975;28;20017;-83
2021/10/11 05:59:16;;;;;;;19.50;13.23;;;;;;;;;;5077739;28;20115;-82
2021/10/11 06:01:42;;;;;;;26.40;14.77;;;;;;;;;;5079115;28;20103;-86
2021/10/11 06:04:08;;;;;;;22.58;13.93;;;;;;;;;;5079497;28;20051;-93
2021/10/11 06:06:34;;;;;;;25.95;13.68;;;;;;;;;;5079073;28;20059;-92
2021/10/11 06:09:00;;;;;;;24.80;14.82;;;;;;;;;;5079186;28;20033;-91
2021/10/11 06:11:26;;;;;;;21.08;14.27;;;;;;;;;;5077226;28;20032;-92
2021/10/11 06:20:00;;;;;;;27.80;16.83;;;;;;;;;;5079049;28;20098;-91
2021/10/11 06:22:27;;;;;;;73.10;28.88;;;;;;;;;;5079018;28;20028;-91
2021/10/11 06:24:53;;;;;;;80.88;31.10;;;;;;;;;;5077798;28;20418;-92
2021/10/11 06:27:36;;;;;;;59.15;25.73;;;;;;;;;;5078958;28;20112;-92
2021/10/11 06:30:03;;;;;;;43.53;22.60;;;;;;;;;;5078489;28;20029;-93
2021/10/11 06:32:29;;;;;;;36.00;20.33;;;;;;;;;;5078439;28;20108;-92
2021/10/11 06:34:55;;;;;;;27.73;18.88;;;;;;;;;;5077678;28;20042;-92
2021/10/11 06:37:21;;;;;;;57.65;27.92;;;;;;;;;;5078598;28;20096;-91
2021/10/11 06:39:47;;;;;;;67.75;28.02;;;;;;;;;;5078685;28;20024;-92
2021/10/11 06:42:14;;;;;;;54.00;24.85;;;;;;;;;;5077670;28;20046;-91
2021/10/11 06:44:40;;;;;;;33.47;19.15;;;;;;;;;;5078454;28;20028;-92
2021/10/11 06:47:06;;;;;;;28.67;18.25;;;;;;;;;;5078278;28;20490;-91
2021/10/11 06:49:32;;;;;;;31.92;19.30;;;;;;;;;;5078466;28;20024;-93
2021/10/11 06:51:58;;;;;;;29.10;18.63;;;;;;;;;;5078487;28;20024;-91
2021/10/11 06:54:24;;;;;;;26.27;18.48;;;;;;;;;;5077437;28;20032;-92
2021/10/11 06:56:50;;;;;;;30.05;19.60;;;;;;;;;;5077483;28;20021;-92
2021/10/11 06:59:16;;;;;;;29.55;19.05;;;;;;;;;;5076844;28;20031;-92
2021/10/11 07:01:43;;;;;;;31.02;19.15;;;;;;;;;;5078011;28;20028;-91
2021/10/11 07:04:10;;;;;;;30.77;19.38;;;;;;;;;;5077173;28;20027;-91
2021/10/11 07:06:36;;;;;;;30.45;19.58;;;;;;;;;;5076731;28;20036;-92
2021/10/11 07:09:02;;;;;;;36.22;21.15;;;;;;;;;;5081389;28;20020;-91
2021/10/11 07:11:29;;;;;;;36.55;21.05;;;;;;;;;;5078758;28;20035;-91
2021/10/11 07:13:55;;;;;;;37.95;21.45;;;;;;;;;;5076934;28;20020;-92
2021/10/11 07:29:01;;;;;;;31.02;22.23;;;;;;;;;;5095074;27;20693;-93
2021/10/11 07:31:27;;;;;;;33.95;21.85;;;;;;;;;;5080028;28;20059;-91
2021/10/11 07:33:54;;;;;;;41.50;24.77;;;;;;;;;;5084673;28;20039;-90
2021/10/11 07:36:20;;;;;;;42.25;27.27;;;;;;;;;;5095094;28;20024;-92
2021/10/11 07:38:46;;;;;;;41.40;26.73;;;;;;;;;;5094198;28;20345;-92
2021/10/11 07:41:12;;;;;;;55.20;33.88;;;;;;;;;;5094813;28;20032;-90
2021/10/11 07:43:38;;;;;;;45.97;27.70;;;;;;;;;;5094864;28;20153;-92
2021/10/11 07:46:05;;;;;;;48.85;27.50;;;;;;;;;;5094422;28;20473;-95
2021/10/11 07:52:00;;;;;;;55.47;34.13;;;;;;;;;;5094912;28;20031;-93
2021/10/11 07:54:26;;;;;;;46.22;28.83;;;;;;;;;;5093989;28;20028;-94
2021/10/11 07:56:52;;;;;;;47.28;27.95;;;;;;;;;;5094516;28;20040;-94
2021/10/11 07:59:18;;;;;;;41.95;28.55;;;;;;;;;;5092957;28;20020;-83
2021/10/11 08:01:44;;;;;;;51.45;30.95;;;;;;;;;;5093140;28;20024;-82
2021/10/11 08:04:10;;;;;;;44.83;29.58;;;;;;;;;;5085033;28;20134;-82
2021/10/11 08:06:37;;;;;;;43.33;28.33;;;;;;;;;;5094022;28;20103;-82
2021/10/11 08:09:04;;;;;;;47.33;27.67;;;;;;;;;;5092708;28;20113;-83
2021/10/11 08:11:30;;;;;;;41.38;26.88;;;;;;;;;;5093067;28;20036;-86
2021/10/11 08:13:58;;;;;;;53.42;35.85;;;;;;;;;;5093705;28;20066;-83
2021/10/11 08:16:24;;;;;;;56.08;38.05;;;;;;;;;;5093640;28;20036;-83
2021/10/11 08:18:50;;;;;;;42.78;29.25;;;;;;;;;;5092618;28;20036;-83
2021/10/11 08:21:16;;;;;;;30.20;20.80;;;;;;;;;;5093595;28;20432;-84
2021/10/11 08:23:43;;;;;;;32.17;21.83;;;;;;;;;;5092771;28;20031;-81
2021/10/11 08:26:09;;;;;;;32.45;21.23;;;;;;;;;;5093620;28;20097;-84
2021/10/11 08:28:36;;;;;;;31.85;21.08;;;;;;;;;;5087529;28;20040;-84
2021/10/11 08:31:02;;;;;;;36.60;21.00;;;;;;;;;;5080030;28;20028;-84
2021/10/11 08:33:28;;;;;;;36.33;23.00;;;;;;;;;;5078989;28;20027;-84
2021/10/11 08:35:54;;;;;;;33.00;22.15;;;;;;;;;;5078841;28;20016;-84
2021/10/11 08:38:20;;;;;;;34.40;23.17;;;;;;;;;;5079901;28;20031;-84
2021/10/11 08:40:48;;;;;;;33.08;21.73;;;;;;;;;;5079786;28;20021;-84
2021/10/11 08:43:14;;;;;;;31.45;21.25;;;;;;;;;;5080214;28;20364;-84
2021/10/11 08:45:43;;;;;;;30.48;19.35;;;;;;;;;;5079922;28;20470;-84
2021/10/11 08:48:09;;;;;;;29.58;20.20;;;;;;;;;;5079810;28;20075;-83
2021/10/11 08:50:35;;;;;;;34.67;20.33;;;;;;;;;;5078694;28;20028;-83
2021/10/11 08:53:03;;;;;;;35.58;21.33;;;;;;;;;;5079597;28;20035;-83
2021/10/11 08:55:29;;;;;;;28.92;18.65;;;;;;;;;;5078757;28;20036;-83
2021/10/11 08:58:02;;;;;;;32.40;20.30;;;;;;;;;;5079523;28;20032;-84
2021/10/11 09:00:32;;;;;;;30.80;20.67;;;;;;;;;;5078418;28;20016;-84
2021/10/11 09:02:59;;;;;;;27.80;18.52;;;;;;;;;;5079912;28;20104;-82
2021/10/11 09:05:36;;;;;;;30.77;19.98;;;;;;;;;;5078458;28;20028;-84
2021/10/11 09:08:13;;;;;;;28.15;18.77;;;;;;;;;;5079562;28;20039;-84
2021/10/11 09:10:53;;;;;;;30.73;19.15;;;;;;;;;;5079496;28;20070;-84
2021/10/11 09:13:27;;;;;;;30.23;19.77;;;;;;;;;;5079502;28;20028;-84
2021/10/11 09:16:03;;;;;;;31.42;18.05;;;;;;;;;;5078265;28;20024;-84
2021/10/11 09:18:30;;;;;;;26.77;17.23;;;;;;;;;;5079180;28;20025;-84
2021/10/11 09:20:57;;;;;;;25.63;17.05;;;;;;;;;;5079169;28;20048;-84
2021/10/11 09:23:24;;;;;;;29.02;17.60;;;;;;;;;;5079500;28;20367;-84
2021/10/11 09:25:50;;;;;;;25.75;17.63;;;;;;;;;;5079320;28;20021;-84
2021/10/11 09:28:20;;;;;;;34.83;18.83;;;;;;;;;;5078752;28;20069;-84
2021/10/11 09:30:48;;;;;;;30.23;17.92;;;;;;;;;;5078004;28;20321;-84
2021/10/11 09:36:21;;;;;;;23.85;15.68;;;;;;;;;;5078534;28;20035;-84
2021/10/11 09:38:57;;;;;;;24.50;14.18;;;;;;;;;;5079009;28;20025;-84
2021/10/11 09:41:23;;;;;;;24.38;12.98;;;;;;;;;;5077897;28;20021;-84
2021/10/11 09:43:49;;;;;;;29.10;17.65;;;;;;;;;;5078797;28;20044;-84
2021/10/11 09:46:18;;;;;;;39.90;22.90;;;;;;;;;;5078495;28;20068;-84
2021/10/11 09:48:52;;;;;;;58.47;33.20;;;;;;;;;;5077521;28;20024;-84
2021/10/11 09:51:21;;;;;;;83.93;47.60;;;;;;;;;;5078796;28;20095;-84
2021/10/11 09:53:47;;;;;;;56.33;34.47;;;;;;;;;;5078517;28;20025;-84
2021/10/11 09:56:13;;;;;;;39.67;23.95;;;;;;;;;;5078641;28;20096;-84
2021/10/11 09:58:39;;;;;;;28.83;19.10;;;;;;;;;;5078490;28;20020;-84
2021/10/11 10:01:05;;;;;;;28.10;16.42;;;;;;;;;;5077494;28;20032;-84
2021/10/11 10:03:32;;;;;;;30.50;16.73;;;;;;;;;;5078445;28;20036;-84
2021/10/11 10:05:59;;;;;;;33.40;17.05;;;;;;;;;;5078469;28;20035;-83
2021/10/11 10:08:26;;;;;;;27.42;16.88;;;;;;;;;;5078121;28;20028;-84
2021/10/11 10:10:57;;;;;;;30.45;16.17;;;;;;;;;;5077792;28;20039;-84
2021/10/11 10:13:25;;;;;;;24.15;15.25;;;;;;;;;;5078112;28;20044;-84
2021/10/11 10:15:51;;;;;;;26.20;15.52;;;;;;;;;;5078254;28;20033;-84
2021/10/11 10:18:18;;;;;;;23.00;15.18;;;;;;;;;;5076890;28;20036;-83
2021/10/11 10:20:55;;;;;;;34.83;16.60;;;;;;;;;;5076938;28;20021;-83
2021/10/11 10:23:30;;;;;;;25.10;16.27;;;;;;;;;;5078114;28;20070;-84
2021/10/11 10:25:57;;;;;;;27.77;15.07;;;;;;;;;;5078102;28;20393;-84
2021/10/11 10:28:26;;;;;;;25.60;14.85;;;;;;;;;;5077520;28;20135;-84
2021/10/11 10:31:00;;;;;;;25.60;16.30;;;;;;;;;;5077636;28;20052;-84
2021/10/11 10:33:34;;;;;;;27.48;17.63;;;;;;;;;;5078084;28;20034;-84
2021/10/11 10:36:00;;;;;;;25.90;15.95;;;;;;;;;;5076669;28;20082;-84
2021/10/11 10:38:27;;;;;;;28.83;15.82;;;;;;;;;;5077544;28;20021;-84
2021/10/11 10:40:53;;;;;;;29.13;16.15;;;;;;;;;;5077585;28;20046;-84
2021/10/11 10:43:20;;;;;;;25.75;15.23;;;;;;;;;;5076435;28;20391;-84
2021/10/11 10:45:49;;;;;;;27.70;14.90;;;;;;;;;;5076604;28;20028;-83
2021/10/11 10:48:26;;;;;;;26.80;14.27;;;;;;;;;;5077734;28;20322;-84
2021/10/11 10:50:55;;;;;;;24.08;13.48;;;;;;;;;;5077402;28;20025;-84
2021/10/11 10:53:23;;;;;;;26.58;15.25;;;;;;;;;;5077364;28;20142;-84
2021/10/11 10:55:49;;;;;;;24.67;15.65;;;;;;;;;;5077407;28;20149;-84
2021/10/11 10:58:16;;;;;;;32.75;23.23;;;;;;;;;;5076123;28;20036;-84
2021/10/11 11:00:42;;;;;;;73.45;48.28;;;;;;;;;;5077613;28;20310;-83
2021/10/11 11:03:17;;;;;;;74.35;47.05;;;;;;;;;;5077339;28;20031;-84
2021/10/11 11:05:44;;;;;;;27.52;15.70;;;;;;;;;;5077381;28;20025;-84
2021/10/11 11:08:11;;;;;;;24.90;15.75;;;;;;;;;;5077321;28;20115;-84
2021/10/11 11:10:39;;;;;;;23.42;15.02;;;;;;;;;;5077528;28;20025;-84
2021/10/11 11:13:16;;;;;;;23.17;14.05;;;;;;;;;;5076979;28;20417;-84
2021/10/11 11:15:52;;;;;;;24.95;15.23;;;;;;;;;;5077333;28;20139;-83
2021/10/11 11:18:25;;;;;;;22.85;15.18;;;;;;;;;;5077013;28;20028;-84
2021/10/11 11:20:52;;;;;;;22.27;14.18;;;;;;;;;;5077219;28;20027;-84
2021/10/11 11:23:23;;;;;;;23.80;13.98;;;;;;;;;;5077122;28;20024;-84
2021/10/11 11:25:53;;;;;;;23.63;11.43;;;;;;;;;;5077280;28;20198;-84
2021/10/11 11:28:22;;;;;;;16.73;11.65;;;;;;;;;;5077079;28;20285;-84
2021/10/11 11:30:49;;;;;;;22.05;13.48;;;;;;;;;;5076141;28;20028;-84
2021/10/11 11:33:15;;;;;;;24.33;14.85;;;;;;;;;;5076747;28;20055;-84
2021/10/11 11:35:46;;;;;;;27.55;14.93;;;;;;;;;;5077289;28;20021;-83
2021/10/11 11:38:17;;;;;;;27.60;15.88;;;;;;;;;;5076908;28;20035;-84
2021/10/11 11:40:51;;;;;;;21.48;13.13;;;;;;;;;;5077291;28;20043;-84
2021/10/11 11:43:17;;;;;;;20.38;12.23;;;;;;;;;;5077260;28;20048;-84
2021/10/11 11:45:47;;;;;;;20.05;11.35;;;;;;;;;;5077068;28;20078;-84
2021/10/11 11:48:17;;;;;;;19.98;12.45;;;;;;;;;;5076152;28;20066;-84
2021/10/11 11:50:44;;;;;;;20.50;11.85;;;;;;;;;;5077159;28;20036;-84
2021/10/11 11:53:12;;;;;;;20.15;11.93;;;;;;;;;;5076800;28;20410;-84
2021/10/11 11:55:38;;;;;;;18.90;12.13;;;;;;;;;;5076806;28;20032;-83
2021/10/11 11:58:15;;;;;;;29.75;17.85;;;;;;;;;;5076702;28;20040;-84
2021/10/11 12:00:44;;;;;;;22.48;13.52;;;;;;;;;;5077021;28;20020;-84
2021/10/11 12:03:11;;;;;;;22.42;14.40;;;;;;;;;;5075898;28;20021;-84
2021/10/11 12:05:38;;;;;;;27.08;15.45;;;;;;;;;;5079669;28;20029;-84
2021/10/11 12:08:04;;;;;;;26.70;13.75;;;;;;;;;;5080610;28;20046;-83
2021/10/11 12:10:34;;;;;;;25.05;13.00;;;;;;;;;;5079086;28;20043;-83
2021/10/11 12:13:01;;;;;;;27.13;13.75;;;;;;;;;;5059476;28;20041;-83
2021/10/11 12:15:27;;;;;;;21.80;11.40;;;;;;;;;;5060320;28;20071;-83
2021/10/11 12:18:07;;;;;;;21.10;13.10;;;;;;;;;;5059100;28;20385;-83
2021/10/11 12:20:39;;;;;;;25.85;14.02;;;;;;;;;;5059203;28;20035;-84
2021/10/11 12:23:05;;;;;;;21.13;11.80;;;;;;;;;;5059280;28;20017;-84
2021/10/11 12:25:32;;;;;;;18.33;12.18;;;;;;;;;;5059934;28;20108;-84
2021/10/11 12:28:12;;;;;;;25.38;14.23;;;;;;;;;;5059802;28;20049;-83
2021/10/11 12:30:38;;;;;;;24.45;14.38;;;;;;;;;;5060476;28;20115;-84
2021/10/11 12:33:12;;;;;;;18.85;11.40;;;;;;;;;;5060029;28;20108;-84
2021/10/11 12:35:39;;;;;;;15.88;11.88;;;;;;;;;;5058964;28;20112;-83
2021/10/11 12:38:05;;;;;;;16.55;11.15;;;;;;;;;;5066424;28;20407;-83
2021/10/11 12:40:32;;;;;;;14.95;10.65;;;;;;;;;;5070942;28;20031;-83
2021/10/11 12:42:59;;;;;;;16.30;11.65;;;;;;;;;;5067493;28;20016;-83
2021/10/11 12:45:25;;;;;;;13.85;10.38;;;;;;;;;;5068105;28;20310;-84
2021/10/11 12:48:04;;;;;;;14.48;10.27;;;;;;;;;;5067209;28;20033;-82
2021/10/11 12:50:30;;;;;;;16.05;9.85;;;;;;;;;;5059970;28;20037;-84
2021/10/11 12:52:58;;;;;;;13.55;9.10;;;;;;;;;;5059565;28;20029;-84
2021/10/11 12:55:24;;;;;;;15.07;10.00;;;;;;;;;;5059531;28;20036;-82
2021/10/11 12:58:02;;;;;;;15.15;10.07;;;;;;;;;;5058329;28;20045;-83
2021/10/11 13:00:28;;;;;;;17.52;11.43;;;;;;;;;;5059626;28;20040;-83
2021/10/11 13:03:05;;;;;;;21.98;13.88;;;;;;;;;;5059602;28;20021;-85
2021/10/11 13:05:31;;;;;;;20.70;13.10;;;;;;;;;;5058383;28;20473;-84
2021/10/11 13:07:57;;;;;;;15.68;9.25;;;;;;;;;;5059349;28;20033;-83
2021/10/11 13:10:23;;;;;;;15.55;9.88;;;;;;;;;;5059495;28;20319;-84
2021/10/11 13:12:49;;;;;;;15.00;9.75;;;;;;;;;;5059296;28;20032;-84
2021/10/11 13:15:15;;;;;;;17.30;9.65;;;;;;;;;;5059062;28;20098;-84
2021/10/11 13:17:42;;;;;;;15.05;9.52;;;;;;;;;;5058121;28;20033;-84
2021/10/11 13:20:08;;;;;;;13.75;8.82;;;;;;;;;;5059110;28;20063;-84
2021/10/11 13:22:34;;;;;;;13.95;9.05;;;;;;;;;;5059137;28;20099;-84
2021/10/11 13:25:00;;;;;;;16.98;9.80;;;;;;;;;;5058063;28;20028;-84
2021/10/11 13:27:26;;;;;;;13.20;8.85;;;;;;;;;;5057964;28;20087;-84
2021/10/11 14:27:41;;;;;;;17.48;15.02;;;;;;;;;;5057627;28;20122;-88
2021/10/11 15:54:11;;;;;;;24.60;17.10;;;;;;;;;;5061268;28;20036;-88
2021/10/11 16:04:55;;;;;;;27.33;16.50;;;;;;;;;;5061337;28;20399;-88
2021/10/11 16:07:21;;;;;;;25.63;16.00;;;;;;;;;;5061072;28;20032;-88
2021/10/11 16:09:47;;;;;;;33.90;20.23;;;;;;;;;;5060773;28;20422;-88
2021/10/11 16:12:13;;;;;;;40.33;23.85;;;;;;;;;;5059873;28;20040;-88
2021/10/11 16:14:39;;;;;;;59.30;32.03;;;;;;;;;;5060619;28;20024;-88
2021/10/11 16:17:05;;;;;;;69.03;34.88;;;;;;;;;;5060562;28;20025;-88
2021/10/11 16:19:33;;;;;;;72.47;37.85;;;;;;;;;;5059626;28;20060;-88
2021/10/11 16:22:00;;;;;;;66.72;36.97;;;;;;;;;;5060939;28;20104;-87
2021/10/11 16:24:26;;;;;;;48.30;27.92;;;;;;;;;;5059554;28;20039;-90
2021/10/11 16:26:52;;;;;;;38.70;21.75;;;;;;;;;;5060097;28;20040;-88
2021/10/11 16:29:19;;;;;;;38.28;21.90;;;;;;;;;;5059815;28;20044;-85
2021/10/11 16:31:45;;;;;;;37.22;20.05;;;;;;;;;;5060260;28;20025;-88
2021/10/11 16:34:11;;;;;;;32.83;21.13;;;;;;;;;;5060913;28;20078;-86
2021/10/11 16:36:38;;;;;;;31.92;20.50;;;;;;;;;;5060103;28;20086;-85
2021/10/11 16:39:04;;;;;;;33.78;21.67;;;;;;;;;;5059309;28;20358;-85
2021/10/11 16:41:30;;;;;;;45.33;29.42;;;;;;;;;;5059556;28;20150;-85
2021/10/11 16:43:56;;;;;;;41.38;25.17;;;;;;;;;;5059299;28;20071;-85
2021/10/11 16:46:23;;;;;;;43.88;27.65;;;;;;;;;;5060546;28;20075;-85
2021/10/11 16:54:56;;;;;;;32.40;20.00;;;;;;;;;;5060009;28;20063;-86
2021/10/11 16:57:23;;;;;;;37.40;22.45;;;;;;;;;;5060142;28;20120;-85
2021/10/11 16:59:49;;;;;;;36.33;23.00;;;;;;;;;;5060156;28;20013;-85
2021/10/11 17:02:16;;;;;;;32.20;20.48;;;;;;;;;;5059880;28;20422;-86
2021/10/11 17:04:42;;;;;;;35.95;20.88;;;;;;;;;;5060033;28;20099;-85
2021/10/11 17:07:08;;;;;;;30.40;17.08;;;;;;;;;;5059101;28;20318;-86
2021/10/11 17:09:35;;;;;;;31.98;19.88;;;;;;;;;;5059707;28;20032;-85
2021/10/11 17:12:01;;;;;;;27.00;18.02;;;;;;;;;;5059910;28;20035;-86
2021/10/11 17:14:27;;;;;;;24.95;16.65;;;;;;;;;;5059494;28;20075;-86
2021/10/11 17:16:53;;;;;;;35.78;20.73;;;;;;;;;;5059412;28;20029;-88
2021/10/11 17:22:24;;;;;;;31.95;20.00;;;;;;;;;;5059791;28;20032;-89
2021/10/11 17:24:50;;;;;;;29.35;19.83;;;;;;;;;;5059623;28;20041;-89
2021/10/11 17:27:17;;;;;;;29.35;18.63;;;;;;;;;;5059056;28;20136;-88
2021/10/11 17:29:43;;;;;;;30.08;17.70;;;;;;;;;;5059369;28;20319;-87
2021/10/11 17:32:09;;;;;;;30.08;17.83;;;;;;;;;;5059203;28;20021;-89
2021/10/11 17:34:35;;;;;;;24.00;15.95;;;;;;;;;;5058237;28;20121;-88
2021/10/11 17:37:02;;;;;;;25.40;15.50;;;;;;;;;;5059065;28;20029;-87
2021/10/11 17:39:28;;;;;;;23.85;14.80;;;;;;;;;;5058861;28;20048;-87
2021/10/11 17:41:54;;;;;;;25.48;15.85;;;;;;;;;;5058214;28;20021;-88